Minjerribah — VHLD — position and weather

sailwx.info

Track history (hours):
 
Tides and Currents Weather Stations Pressure Air Temp Water Temp Dewpoint Dewpoint Depression Visibility Wind Speed Wind Dir Waves Ship Positions

Minjerribah

Last reported at 2017-Sep-22 02:00 UTC. Time now 2017-Sep-23 00:26 UTC.
Position S 27°32' E 153°17'.

Length 68 m; draft 2 m.

Type: Passenger vessel. MMSI: 503709000.

Date/timePositionNaut miles runAvg speedWind from/ knotsBaromVisibWave heightAir tempDewpointWater temp
2017-Sep-22 02:00S 27°32' E 153°17'2 4.8
2017-Sep-22 01:30S 27°32' E 153°20'4 8.2
2017-Sep-22 01:00S 27°30' E 153°24'3 5.7
2017-Sep-22 00:30S 27°32' E 153°21'4 6.9
2017-Sep-21 23:58S 27°32' E 153°17'5 3.8
2017-Sep-21 22:39S 27°31' E 153°23'311.4
2017-Sep-21 22:24S 27°32' E 153°20'2 3.2
2017-Sep-21 21:40S 27°32' E 153°17'0 0.0
2017-Sep-21 21:30S 27°32' E 153°17'2 4.0
2017-Sep-21 21:00S 27°32' E 153°19'5 9.3
2017-Sep-21 20:30S 27°30' E 153°24'3 6.3
2017-Sep-21 20:00S 27°32' E 153°21'3 6.9
2017-Sep-21 19:31S 27°32' E 153°17'0 0.0
2017-Sep-21 08:04S 27°32' E 153°17'0 0.0
2017-Sep-21 08:00S 27°32' E 153°17'2 4.5
2017-Sep-21 07:30S 27°32' E 153°20'4 8.6
2017-Sep-21 07:00S 27°30' E 153°24'3 5.0
2017-Sep-21 06:30S 27°32' E 153°22'4 8.1
2017-Sep-21 06:00S 27°32' E 153°17'2 4.1
2017-Sep-21 05:30S 27°32' E 153°19'5 9.1
2017-Sep-21 05:00S 27°30' E 153°24'3 6.0
2017-Sep-21 04:30S 27°32' E 153°21'4 7.1
2017-Sep-21 04:00S 27°32' E 153°17'2 4.8
2017-Sep-21 03:30S 27°32' E 153°20'4 8.1
2017-Sep-21 03:00S 27°30' E 153°24'3 6.5
2017-Sep-21 02:30S 27°32' E 153°21'3 3.5
2017-Sep-21 01:43S 27°32' E 153°18'2 9.1
2017-Sep-21 01:30S 27°32' E 153°20'4 8.1
2017-Sep-21 01:00S 27°30' E 153°24'3 6.4
2017-Sep-21 00:30S 27°32' E 153°21'3 6.7
2017-Sep-21 00:00S 27°32' E 153°17'2 4.6
2017-Sep-20 23:30S 27°32' E 153°20'4 8.5
2017-Sep-20 23:00S 27°30' E 153°24'3 6.2
2017-Sep-20 22:30S 27°32' E 153°21'4 6.8
2017-Sep-20 21:59S 27°32' E 153°17'0 0.0
2017-Sep-20 21:30S 27°32' E 153°17'3 6.0
2017-Sep-20 21:00S 27°32' E 153°20'4 6.1
2017-Sep-20 20:26S 27°30' E 153°24'3 6.9
2017-Sep-20 20:00S 27°32' E 153°21'4 7.2
2017-Sep-20 19:30S 27°32' E 153°17'0 0.0
2017-Sep-20 07:56S 27°32' E 153°17'3 7.1
2017-Sep-20 07:29S 27°32' E 153°21'3 6.6
2017-Sep-20 06:59S 27°30' E 153°24'3 7.2
2017-Sep-20 06:30S 27°32' E 153°21'3 6.2
2017-Sep-20 06:00S 27°32' E 153°17'2 4.7
2017-Sep-20 05:30S 27°32' E 153°20'4 8.3
2017-Sep-20 05:00S 27°30' E 153°24'3 5.8
2017-Sep-20 04:30S 27°32' E 153°21'4 7.2
2017-Sep-20 04:00S 27°32' E 153°17'2 4.9
2017-Sep-20 03:30S 27°32' E 153°20'4 8.1
2017-Sep-20 03:00S 27°30' E 153°24'3 5.7
2017-Sep-20 02:30S 27°32' E 153°21'4 7.4
2017-Sep-20 02:00S 27°32' E 153°17'2 4.3
2017-Sep-20 01:30S 27°32' E 153°19'4 8.9
2017-Sep-20 01:00S 27°30' E 153°24'3 6.2
2017-Sep-20 00:30S 27°32' E 153°21'4 7.0
2017-Sep-20 00:00S 27°32' E 153°17'2 3.7
2017-Sep-19 23:30S 27°32' E 153°19'5 9.8
2017-Sep-19 23:00S 27°30' E 153°24'3 5.7
2017-Sep-19 22:30S 27°32' E 153°21'4 7.3
2017-Sep-19 22:00S 27°32' E 153°17'0 0.0
2017-Sep-19 21:29S 27°32' E 153°17'4 6.5
2017-Sep-19 20:57S 27°31' E 153°21'3 6.6
2017-Sep-19 20:30S 27°30' E 153°24'2 4.7
2017-Sep-19 20:00S 27°31' E 153°22'4 8.1
2017-Sep-19 19:29S 27°32' E 153°17'0 0.0
2017-Sep-19 07:51S 27°32' E 153°17'2 6.4
2017-Sep-19 07:30S 27°32' E 153°20'4 9.1
2017-Sep-19 07:00S 27°30' E 153°24'3 5.6
2017-Sep-19 06:30S 27°32' E 153°21'4 7.5
2017-Sep-19 06:00S 27°32' E 153°17'2 4.0
2017-Sep-19 05:30S 27°32' E 153°19'5 9.3
2017-Sep-19 05:00S 27°30' E 153°24'3 5.1
2017-Sep-19 04:30S 27°32' E 153°22'4 8.0
2017-Sep-19 04:00S 27°32' E 153°17'2 3.5
2017-Sep-19 03:30S 27°32' E 153°19'5 9.7
2017-Sep-19 03:00S 27°30' E 153°24'2 4.4
2017-Sep-19 02:30S 27°31' E 153°22'4 8.7
2017-Sep-19 02:00S 27°32' E 153°17'2 3.8
2017-Sep-19 01:30S 27°32' E 153°19'5 9.3
2017-Sep-19 01:00S 27°30' E 153°24'2 4.0
2017-Sep-19 00:30S 27°31' E 153°22'5 9.0
2017-Sep-19 00:00S 27°32' E 153°17'2 4.2
2017-Sep-18 23:30S 27°32' E 153°19'5 9.1
2017-Sep-18 23:00S 27°30' E 153°24'2 4.5
2017-Sep-18 22:30S 27°32' E 153°22'4 7.7
2017-Sep-18 21:56S 27°32' E 153°17'0 0.0
2017-Sep-18 21:30S 27°32' E 153°17'2 4.3
2017-Sep-18 21:00S 27°32' E 153°19'4 9.2
2017-Sep-18 20:30S 27°30' E 153°24'2 4.6
2017-Sep-18 20:00S 27°32' E 153°22'4 8.5
2017-Sep-18 19:30S 27°32' E 153°17'1 0.1
2017-Sep-18 07:40S 27°32' E 153°18'1 9.0
2017-Sep-18 07:30S 27°32' E 153°19'5 9.1
2017-Sep-18 07:00S 27°30' E 153°24'3 5.3
2017-Sep-18 06:29S 27°32' E 153°21'4 8.0
2017-Sep-18 06:00S 27°32' E 153°17'2 3.9
2017-Sep-18 05:30S 27°32' E 153°19'5 9.4
2017-Sep-18 05:00S 27°30' E 153°24'3 5.7
2017-Sep-18 04:30S 27°32' E 153°21'4 7.4
2017-Sep-18 04:00S 27°32' E 153°17'2 4.4
2017-Sep-18 03:30S 27°32' E 153°19'4 8.8
2017-Sep-18 03:00S 27°30' E 153°24'3 5.4
2017-Sep-18 02:30S 27°32' E 153°21'4 7.7
2017-Sep-18 02:00S 27°32' E 153°17'2 3.4
2017-Sep-18 01:30S 27°32' E 153°19'5 9.7
2017-Sep-18 01:00S 27°30' E 153°24'2 4.5
2017-Sep-18 00:30S 27°31' E 153°22'0 0.1
2017-Sep-17 22:31S 27°31' E 153°22'012.5
2017-Sep-17 22:29S 27°32' E 153°22'4 3.4
2017-Sep-17 21:17S 27°32' E 153°17'2 7.5
2017-Sep-17 21:00S 27°32' E 153°19'5 9.0
2017-Sep-17 20:30S 27°30' E 153°24'3 5.5
2017-Sep-17 20:00S 27°32' E 153°21'4 7.7
2017-Sep-17 19:30S 27°32' E 153°17'6 0.6
2017-Sep-17 08:57S 27°30' E 153°24'2 4.4
2017-Sep-17 08:30S 27°31' E 153°22'5 9.3
2017-Sep-17 08:00S 27°32' E 153°17'3 5.7
2017-Sep-17 07:29S 27°32' E 153°20'3 1.3
2017-Sep-17 04:58S 27°30' E 153°24'510.3
2017-Sep-17 04:30S 27°32' E 153°19'1 2.0
2017-Sep-17 03:55S 27°32' E 153°18'4 9.7
2017-Sep-17 03:30S 27°31' E 153°22'1 0.3
2017-Sep-17 01:16S 27°31' E 153°23'1 1.8
2017-Sep-17 00:44S 27°31' E 153°24'210.4
2017-Sep-17 00:30S 27°32' E 153°21'4 7.5
2017-Sep-17 00:00S 27°32' E 153°17'6 1.8
2017-Sep-16 20:34S 27°30' E 153°24'0 2.9
2017-Sep-16 20:30S 27°30' E 153°24'3 5.1
2017-Sep-16 20:00S 27°32' E 153°22'1 0.0
2017-Sep-16 07:20S 27°32' E 153°21'3 9.0
2017-Sep-16 07:00S 27°30' E 153°24'3 6.9
2017-Sep-16 06:31S 27°32' E 153°21'3 6.1
2017-Sep-16 05:59S 27°32' E 153°17'5 7.9
2017-Sep-16 05:19S 27°31' E 153°23'1 4.2
2017-Sep-16 05:01S 27°30' E 153°24'4 8.5
2017-Sep-16 04:30S 27°32' E 153°20'4 2.7
2017-Sep-16 02:55S 27°30' E 153°24'5 9.4
2017-Sep-16 02:25S 27°32' E 153°19'5 3.4
2017-Sep-16 01:02S 27°30' E 153°24'0 0.6
2017-Sep-16 00:59S 27°30' E 153°24'3 6.3
2017-Sep-16 00:30S 27°32' E 153°21'4 6.5
2017-Sep-15 23:58S 27°32' E 153°17'2 3.7
2017-Sep-15 23:30S 27°32' E 153°19'510.2
2017-Sep-15 23:00S 27°30' E 153°24'3 6.7
2017-Sep-15 22:30S 27°32' E 153°21'3 6.4
2017-Sep-15 22:00S 27°32' E 153°17'0 0.0
2017-Sep-15 21:30S 27°32' E 153°17'3 6.0
2017-Sep-15 21:00S 27°32' E 153°21'3 7.0
2017-Sep-15 20:31S 27°30' E 153°24'3 6.0
2017-Sep-15 20:01S 27°32' E 153°21'4 7.0
2017-Sep-15 19:30S 27°32' E 153°17'1 0.1
2017-Sep-15 11:39S 27°32' E 153°18'1 8.1
2017-Sep-15 11:30S 27°32' E 153°19'5 9.8
2017-Sep-15 11:00S 27°30' E 153°24'2 4.7
2017-Sep-15 10:30S 27°31' E 153°22'4 8.3
2017-Sep-15 10:00S 27°32' E 153°17'2 3.6
2017-Sep-15 09:30S 27°32' E 153°19'5 9.9
2017-Sep-15 09:00S 27°30' E 153°24'2 4.2
2017-Sep-15 08:30S 27°31' E 153°22'4 8.8
2017-Sep-15 08:00S 27°32' E 153°17'2 4.2
2017-Sep-15 07:30S 27°32' E 153°19'5 9.1
2017-Sep-15 07:00S 27°30' E 153°24'3 6.9
2017-Sep-15 06:30S 27°32' E 153°21'2 2.8
2017-Sep-15 05:46S 27°33' E 153°18'310.8
2017-Sep-15 05:30S 27°32' E 153°21'2 4.6
2017-Sep-15 05:00S 27°31' E 153°24'510.6
2017-Sep-15 04:30S 27°32' E 153°18'3 3.9
2017-Sep-15 03:38S 27°31' E 153°22'110.9
2017-Sep-15 03:30S 27°31' E 153°23'1 1.0
2017-Sep-15 02:59S 27°31' E 153°24'510.5
2017-Sep-15 02:31S 27°33' E 153°18'1 1.0
2017-Sep-15 01:42S 27°32' E 153°19'411.1
2017-Sep-15 01:21S 27°31' E 153°23'1 1.1
2017-Sep-15 00:42S 27°31' E 153°23'210.4
2017-Sep-15 00:30S 27°32' E 153°20'4 2.4
2017-Sep-14 23:01S 27°30' E 153°24'0 0.0
2017-Sep-14 23:00S 27°30' E 153°24'3 5.7
2017-Sep-14 22:30S 27°32' E 153°21'4 7.5
2017-Sep-14 22:01S 27°32' E 153°17'0 0.0
2017-Sep-14 21:31S 27°32' E 153°17'3 5.9
2017-Sep-14 21:01S 27°32' E 153°20'4 7.1
2017-Sep-14 20:31S 27°30' E 153°24'3 5.2
2017-Sep-14 20:00S 27°32' E 153°21'4 7.8
2017-Sep-14 19:30S 27°32' E 153°17'1 0.1
2017-Sep-14 10:00S 27°32' E 153°18'5 9.7
2017-Sep-14 09:30S 27°31' E 153°23'1 1.3
2017-Sep-14 09:00S 27°31' E 153°22'5 9.3
2017-Sep-14 08:30S 27°32' E 153°17'2 3.4
2017-Sep-14 08:00S 27°32' E 153°19'5 9.7
2017-Sep-14 07:30S 27°30' E 153°24'1 2.9
2017-Sep-14 07:00S 27°31' E 153°23'5 9.9
2017-Sep-14 06:30S 27°32' E 153°17'1 1.4
2017-Sep-14 05:59S 27°32' E 153°18'4 8.8
2017-Sep-14 05:30S 27°31' E 153°23'2 3.5
2017-Sep-14 05:00S 27°30' E 153°24'3 6.2
2017-Sep-14 04:30S 27°32' E 153°21'4 7.0
2017-Sep-14 04:00S 27°32' E 153°17'3 6.1
2017-Sep-14 03:30S 27°32' E 153°21'3 6.9
2017-Sep-14 03:00S 27°30' E 153°24'3 5.5
2017-Sep-14 02:30S 27°32' E 153°21'4 7.7
2017-Sep-14 02:00S 27°32' E 153°17'3 5.6
2017-Sep-14 01:27S 27°32' E 153°21'3 7.4
2017-Sep-14 00:59S 27°30' E 153°24'3 6.7
2017-Sep-14 00:30S 27°32' E 153°21'3 6.3
2017-Sep-13 23:59S 27°32' E 153°17'2 4.9
2017-Sep-13 23:28S 27°32' E 153°20'4 8.8
2017-Sep-13 23:00S 27°30' E 153°24'3 5.2
2017-Sep-13 22:30S 27°32' E 153°22'1 0.5
2017-Sep-13 20:04S 27°31' E 153°23'110.6
2017-Sep-13 19:59S 27°31' E 153°22'4 8.7
2017-Sep-13 19:30S 27°32' E 153°17'0 0.1
2017-Sep-13 19:00S 27°32' E 153°17'0 0.0
2017-Sep-13 07:47S 27°32' E 153°17'2 7.5
2017-Sep-13 07:31S 27°32' E 153°19'5 8.9
2017-Sep-13 07:00S 27°30' E 153°24'2 4.0
2017-Sep-13 06:30S 27°31' E 153°22'5 9.1
2017-Sep-13 06:00S 27°32' E 153°17'2 3.8
2017-Sep-13 05:28S 27°32' E 153°19'4 9.8
2017-Sep-13 05:00S 27°30' E 153°24'2 3.8
2017-Sep-13 04:30S 27°31' E 153°22'5 9.1
2017-Sep-13 04:00S 27°32' E 153°17'2 4.2
2017-Sep-13 03:26S 27°32' E 153°20'4 9.4
2017-Sep-13 03:00S 27°30' E 153°24'2 4.5
2017-Sep-13 02:31S 27°32' E 153°22'4 8.6
2017-Sep-13 02:01S 27°32' E 153°17'5 6.9
2017-Sep-13 01:18S 27°31' E 153°23'2 5.8
2017-Sep-13 01:00S 27°30' E 153°24'4 7.9
2017-Sep-13 00:30S 27°32' E 153°20'3 5.2
2017-Sep-13 00:00S 27°32' E 153°17'2 4.0
2017-Sep-12 23:30S 27°32' E 153°19'5 9.0
2017-Sep-12 22:59S 27°30' E 153°24'3 5.9
2017-Sep-12 22:30S 27°32' E 153°21'4 7.5
2017-Sep-12 22:01S 27°32' E 153°17'0 0.0
2017-Sep-12 21:30S 27°32' E 153°17'3 4.3
2017-Sep-12 20:56S 27°32' E 153°20'4 9.3
2017-Sep-12 20:30S 27°30' E 153°24'2 4.5
2017-Sep-12 20:00S 27°31' E 153°22'4 6.0
2017-Sep-12 19:16S 27°32' E 153°17'0 0.0
2017-Sep-12 19:00S 27°32' E 153°17'0 0.0
2017-Sep-12 07:56S 27°32' E 153°17'2 4.9
2017-Sep-12 07:30S 27°32' E 153°19'4 8.6
2017-Sep-12 06:59S 27°30' E 153°24'2 4.4
2017-Sep-12 06:30S 27°31' E 153°22'4 7.9
2017-Sep-12 05:57S 27°32' E 153°17'2 4.4
2017-Sep-12 05:30S 27°32' E 153°19'5 9.4
2017-Sep-12 05:00S 27°30' E 153°24'2 4.9
2017-Sep-12 04:31S 27°32' E 153°22'4 8.1
2017-Sep-12 04:00S 27°32' E 153°17'2 4.4
2017-Sep-12 03:30S 27°32' E 153°19'4 8.9
2017-Sep-12 03:00S 27°30' E 153°24'2 3.5
2017-Sep-12 02:30S 27°31' E 153°23'  
Track history (hours):
 
Tides and Currents Weather Stations Pressure Air Temp Water Temp Dewpoint Dewpoint Depression Visibility Wind Speed Wind Dir Waves Ship Positions

Minjerribah

Last reported at 2017-Sep-22 02:00 UTC. Time now 2017-Sep-23 00:26 UTC.
Position S 27°32' E 153°17'.

Length 68 m; draft 2 m.

Type: Passenger vessel. MMSI: 503709000.

Date/timePositionNaut miles runAvg speedWind from/ knotsBaromVisibWave heightAir tempDewpointWater temp
2017-Sep-22 02:00S 27°32' E 153°17'2 4.8
2017-Sep-22 01:30S 27°32' E 153°20'4 8.2
2017-Sep-22 01:00S 27°30' E 153°24'3 5.7
2017-Sep-22 00:30S 27°32' E 153°21'4 6.9
2017-Sep-21 23:58S 27°32' E 153°17'5 3.8
2017-Sep-21 22:39S 27°31' E 153°23'311.4
2017-Sep-21 22:24S 27°32' E 153°20'2 3.2
2017-Sep-21 21:40S 27°32' E 153°17'0 0.0
2017-Sep-21 21:30S 27°32' E 153°17'2 4.0
2017-Sep-21 21:00S 27°32' E 153°19'5 9.3
2017-Sep-21 20:30S 27°30' E 153°24'3 6.3
2017-Sep-21 20:00S 27°32' E 153°21'3 6.9
2017-Sep-21 19:31S 27°32' E 153°17'0 0.0
2017-Sep-21 08:04S 27°32' E 153°17'0 0.0
2017-Sep-21 08:00S 27°32' E 153°17'2 4.5
2017-Sep-21 07:30S 27°32' E 153°20'4 8.6
2017-Sep-21 07:00S 27°30' E 153°24'3 5.0
2017-Sep-21 06:30S 27°32' E 153°22'4 8.1
2017-Sep-21 06:00S 27°32' E 153°17'2 4.1
2017-Sep-21 05:30S 27°32' E 153°19'5 9.1
2017-Sep-21 05:00S 27°30' E 153°24'3 6.0
2017-Sep-21 04:30S 27°32' E 153°21'4 7.1
2017-Sep-21 04:00S 27°32' E 153°17'2 4.8
2017-Sep-21 03:30S 27°32' E 153°20'4 8.1
2017-Sep-21 03:00S 27°30' E 153°24'3 6.5
2017-Sep-21 02:30S 27°32' E 153°21'3 3.5
2017-Sep-21 01:43S 27°32' E 153°18'2 9.1
2017-Sep-21 01:30S 27°32' E 153°20'4 8.1
2017-Sep-21 01:00S 27°30' E 153°24'3 6.4
2017-Sep-21 00:30S 27°32' E 153°21'3 6.7
2017-Sep-21 00:00S 27°32' E 153°17'2 4.6
2017-Sep-20 23:30S 27°32' E 153°20'4 8.5
2017-Sep-20 23:00S 27°30' E 153°24'3 6.2
2017-Sep-20 22:30S 27°32' E 153°21'4 6.8
2017-Sep-20 21:59S 27°32' E 153°17'0 0.0
2017-Sep-20 21:30S 27°32' E 153°17'3 6.0
2017-Sep-20 21:00S 27°32' E 153°20'4 6.1
2017-Sep-20 20:26S 27°30' E 153°24'3 6.9
2017-Sep-20 20:00S 27°32' E 153°21'4 7.2
2017-Sep-20 19:30S 27°32' E 153°17'0 0.0
2017-Sep-20 07:56S 27°32' E 153°17'3 7.1
2017-Sep-20 07:29S 27°32' E 153°21'3 6.6
2017-Sep-20 06:59S 27°30' E 153°24'3 7.2
2017-Sep-20 06:30S 27°32' E 153°21'3 6.2
2017-Sep-20 06:00S 27°32' E 153°17'2 4.7
2017-Sep-20 05:30S 27°32' E 153°20'4 8.3
2017-Sep-20 05:00S 27°30' E 153°24'3 5.8
2017-Sep-20 04:30S 27°32' E 153°21'4 7.2
2017-Sep-20 04:00S 27°32' E 153°17'2 4.9
2017-Sep-20 03:30S 27°32' E 153°20'4 8.1
2017-Sep-20 03:00S 27°30' E 153°24'3 5.7
2017-Sep-20 02:30S 27°32' E 153°21'4 7.4
2017-Sep-20 02:00S 27°32' E 153°17'2 4.3
2017-Sep-20 01:30S 27°32' E 153°19'4 8.9
2017-Sep-20 01:00S 27°30' E 153°24'3 6.2
2017-Sep-20 00:30S 27°32' E 153°21'4 7.0
2017-Sep-20 00:00S 27°32' E 153°17'2 3.7
2017-Sep-19 23:30S 27°32' E 153°19'5 9.8
2017-Sep-19 23:00S 27°30' E 153°24'3 5.7
2017-Sep-19 22:30S 27°32' E 153°21'4 7.3
2017-Sep-19 22:00S 27°32' E 153°17'0 0.0
2017-Sep-19 21:29S 27°32' E 153°17'4 6.5
2017-Sep-19 20:57S 27°31' E 153°21'3 6.6
2017-Sep-19 20:30S 27°30' E 153°24'2 4.7
2017-Sep-19 20:00S 27°31' E 153°22'4 8.1
2017-Sep-19 19:29S 27°32' E 153°17'0 0.0
2017-Sep-19 07:51S 27°32' E 153°17'2 6.4
2017-Sep-19 07:30S 27°32' E 153°20'4 9.1
2017-Sep-19 07:00S 27°30' E 153°24'3 5.6
2017-Sep-19 06:30S 27°32' E 153°21'4 7.5
2017-Sep-19 06:00S 27°32' E 153°17'2 4.0
2017-Sep-19 05:30S 27°32' E 153°19'5 9.3
2017-Sep-19 05:00S 27°30' E 153°24'3 5.1
2017-Sep-19 04:30S 27°32' E 153°22'4 8.0
2017-Sep-19 04:00S 27°32' E 153°17'2 3.5
2017-Sep-19 03:30S 27°32' E 153°19'5 9.7
2017-Sep-19 03:00S 27°30' E 153°24'2 4.4
2017-Sep-19 02:30S 27°31' E 153°22'4 8.7
2017-Sep-19 02:00S 27°32' E 153°17'2 3.8
2017-Sep-19 01:30S 27°32' E 153°19'5 9.3
2017-Sep-19 01:00S 27°30' E 153°24'2 4.0
2017-Sep-19 00:30S 27°31' E 153°22'5 9.0
2017-Sep-19 00:00S 27°32' E 153°17'2 4.2
2017-Sep-18 23:30S 27°32' E 153°19'5 9.1
2017-Sep-18 23:00S 27°30' E 153°24'2 4.5
2017-Sep-18 22:30S 27°32' E 153°22'4 7.7
2017-Sep-18 21:56S 27°32' E 153°17'0 0.0
2017-Sep-18 21:30S 27°32' E 153°17'2 4.3
2017-Sep-18 21:00S 27°32' E 153°19'4 9.2
2017-Sep-18 20:30S 27°30' E 153°24'2 4.6
2017-Sep-18 20:00S 27°32' E 153°22'4 8.5
2017-Sep-18 19:30S 27°32' E 153°17'1 0.1
2017-Sep-18 07:40S 27°32' E 153°18'1 9.0
2017-Sep-18 07:30S 27°32' E 153°19'5 9.1
2017-Sep-18 07:00S 27°30' E 153°24'3 5.3
2017-Sep-18 06:29S 27°32' E 153°21'4 8.0
2017-Sep-18 06:00S 27°32' E 153°17'2 3.9
2017-Sep-18 05:30S 27°32' E 153°19'5 9.4
2017-Sep-18 05:00S 27°30' E 153°24'3 5.7
2017-Sep-18 04:30S 27°32' E 153°21'4 7.4
2017-Sep-18 04:00S 27°32' E 153°17'2 4.4
2017-Sep-18 03:30S 27°32' E 153°19'4 8.8
2017-Sep-18 03:00S 27°30' E 153°24'3 5.4
2017-Sep-18 02:30S 27°32' E 153°21'4 7.7
2017-Sep-18 02:00S 27°32' E 153°17'2 3.4
2017-Sep-18 01:30S 27°32' E 153°19'5 9.7
2017-Sep-18 01:00S 27°30' E 153°24'2 4.5
2017-Sep-18 00:30S 27°31' E 153°22'0 0.1
2017-Sep-17 22:31S 27°31' E 153°22'012.5
2017-Sep-17 22:29S 27°32' E 153°22'4 3.4
2017-Sep-17 21:17S 27°32' E 153°17'2 7.5
2017-Sep-17 21:00S 27°32' E 153°19'5 9.0
2017-Sep-17 20:30S 27°30' E 153°24'3 5.5
2017-Sep-17 20:00S 27°32' E 153°21'4 7.7
2017-Sep-17 19:30S 27°32' E 153°17'6 0.6
2017-Sep-17 08:57S 27°30' E 153°24'2 4.4
2017-Sep-17 08:30S 27°31' E 153°22'5 9.3
2017-Sep-17 08:00S 27°32' E 153°17'3 5.7
2017-Sep-17 07:29S 27°32' E 153°20'3 1.3
2017-Sep-17 04:58S 27°30' E 153°24'510.3
2017-Sep-17 04:30S 27°32' E 153°19'1 2.0
2017-Sep-17 03:55S 27°32' E 153°18'4 9.7
2017-Sep-17 03:30S 27°31' E 153°22'1 0.3
2017-Sep-17 01:16S 27°31' E 153°23'1 1.8
2017-Sep-17 00:44S 27°31' E 153°24'210.4
2017-Sep-17 00:30S 27°32' E 153°21'4 7.5
2017-Sep-17 00:00S 27°32' E 153°17'6 1.8
2017-Sep-16 20:34S 27°30' E 153°24'0 2.9
2017-Sep-16 20:30S 27°30' E 153°24'3 5.1
2017-Sep-16 20:00S 27°32' E 153°22'1 0.0
2017-Sep-16 07:20S 27°32' E 153°21'3 9.0
2017-Sep-16 07:00S 27°30' E 153°24'3 6.9
2017-Sep-16 06:31S 27°32' E 153°21'3 6.1
2017-Sep-16 05:59S 27°32' E 153°17'5 7.9
2017-Sep-16 05:19S 27°31' E 153°23'1 4.2
2017-Sep-16 05:01S 27°30' E 153°24'4 8.5
2017-Sep-16 04:30S 27°32' E 153°20'4 2.7
2017-Sep-16 02:55S 27°30' E 153°24'5 9.4
2017-Sep-16 02:25S 27°32' E 153°19'5 3.4
2017-Sep-16 01:02S 27°30' E 153°24'0 0.6
2017-Sep-16 00:59S 27°30' E 153°24'3 6.3
2017-Sep-16 00:30S 27°32' E 153°21'4 6.5
2017-Sep-15 23:58S 27°32' E 153°17'2 3.7
2017-Sep-15 23:30S 27°32' E 153°19'510.2
2017-Sep-15 23:00S 27°30' E 153°24'3 6.7
2017-Sep-15 22:30S 27°32' E 153°21'3 6.4
2017-Sep-15 22:00S 27°32' E 153°17'0 0.0
2017-Sep-15 21:30S 27°32' E 153°17'3 6.0
2017-Sep-15 21:00S 27°32' E 153°21'3 7.0
2017-Sep-15 20:31S 27°30' E 153°24'3 6.0
2017-Sep-15 20:01S 27°32' E 153°21'4 7.0
2017-Sep-15 19:30S 27°32' E 153°17'1 0.1
2017-Sep-15 11:39S 27°32' E 153°18'1 8.1
2017-Sep-15 11:30S 27°32' E 153°19'5 9.8
2017-Sep-15 11:00S 27°30' E 153°24'2 4.7
2017-Sep-15 10:30S 27°31' E 153°22'4 8.3
2017-Sep-15 10:00S 27°32' E 153°17'2 3.6
2017-Sep-15 09:30S 27°32' E 153°19'5 9.9
2017-Sep-15 09:00S 27°30' E 153°24'2 4.2
2017-Sep-15 08:30S 27°31' E 153°22'4 8.8
2017-Sep-15 08:00S 27°32' E 153°17'2 4.2
2017-Sep-15 07:30S 27°32' E 153°19'5 9.1
2017-Sep-15 07:00S 27°30' E 153°24'3 6.9
2017-Sep-15 06:30S 27°32' E 153°21'2 2.8
2017-Sep-15 05:46S 27°33' E 153°18'310.8
2017-Sep-15 05:30S 27°32' E 153°21'2 4.6
2017-Sep-15 05:00S 27°31' E 153°24'510.6
2017-Sep-15 04:30S 27°32' E 153°18'3 3.9
2017-Sep-15 03:38S 27°31' E 153°22'110.9
2017-Sep-15 03:30S 27°31' E 153°23'1 1.0
2017-Sep-15 02:59S 27°31' E 153°24'510.5
2017-Sep-15 02:31S 27°33' E 153°18'1 1.0
2017-Sep-15 01:42S 27°32' E 153°19'411.1
2017-Sep-15 01:21S 27°31' E 153°23'1 1.1
2017-Sep-15 00:42S 27°31' E 153°23'210.4
2017-Sep-15 00:30S 27°32' E 153°20'4 2.4
2017-Sep-14 23:01S 27°30' E 153°24'0 0.0
2017-Sep-14 23:00S 27°30' E 153°24'3 5.7
2017-Sep-14 22:30S 27°32' E 153°21'4 7.5
2017-Sep-14 22:01S 27°32' E 153°17'0 0.0
2017-Sep-14 21:31S 27°32' E 153°17'3 5.9
2017-Sep-14 21:01S 27°32' E 153°20'4 7.1
2017-Sep-14 20:31S 27°30' E 153°24'3 5.2
2017-Sep-14 20:00S 27°32' E 153°21'4 7.8
2017-Sep-14 19:30S 27°32' E 153°17'1 0.1
2017-Sep-14 10:00S 27°32' E 153°18'5 9.7
2017-Sep-14 09:30S 27°31' E 153°23'1 1.3
2017-Sep-14 09:00S 27°31' E 153°22'5 9.3
2017-Sep-14 08:30S 27°32' E 153°17'2 3.4
2017-Sep-14 08:00S 27°32' E 153°19'5 9.7
2017-Sep-14 07:30S 27°30' E 153°24'1 2.9
2017-Sep-14 07:00S 27°31' E 153°23'5 9.9
2017-Sep-14 06:30S 27°32' E 153°17'1 1.4
2017-Sep-14 05:59S 27°32' E 153°18'4 8.8
2017-Sep-14 05:30S 27°31' E 153°23'2 3.5
2017-Sep-14 05:00S 27°30' E 153°24'3 6.2
2017-Sep-14 04:30S 27°32' E 153°21'4 7.0
2017-Sep-14 04:00S 27°32' E 153°17'3 6.1
2017-Sep-14 03:30S 27°32' E 153°21'3 6.9
2017-Sep-14 03:00S 27°30' E 153°24'3 5.5
2017-Sep-14 02:30S 27°32' E 153°21'4 7.7
2017-Sep-14 02:00S 27°32' E 153°17'3 5.6
2017-Sep-14 01:27S 27°32' E 153°21'3 7.4
2017-Sep-14 00:59S 27°30' E 153°24'3 6.7
2017-Sep-14 00:30S 27°32' E 153°21'3 6.3
2017-Sep-13 23:59S 27°32' E 153°17'2 4.9
2017-Sep-13 23:28S 27°32' E 153°20'4 8.8
2017-Sep-13 23:00S 27°30' E 153°24'3 5.2
2017-Sep-13 22:30S 27°32' E 153°22'1 0.5
2017-Sep-13 20:04S 27°31' E 153°23'110.6
2017-Sep-13 19:59S 27°31' E 153°22'4 8.7
2017-Sep-13 19:30S 27°32' E 153°17'0 0.1
2017-Sep-13 19:00S 27°32' E 153°17'0 0.0
2017-Sep-13 07:47S 27°32' E 153°17'2 7.5
2017-Sep-13 07:31S 27°32' E 153°19'5 8.9
2017-Sep-13 07:00S 27°30' E 153°24'2 4.0
2017-Sep-13 06:30S 27°31' E 153°22'5 9.1
2017-Sep-13 06:00S 27°32' E 153°17'2 3.8
2017-Sep-13 05:28S 27°32' E 153°19'4 9.8
2017-Sep-13 05:00S 27°30' E 153°24'2 3.8
2017-Sep-13 04:30S 27°31' E 153°22'5 9.1
2017-Sep-13 04:00S 27°32' E 153°17'2 4.2
2017-Sep-13 03:26S 27°32' E 153°20'4 9.4
2017-Sep-13 03:00S 27°30' E 153°24'2 4.5
2017-Sep-13 02:31S 27°32' E 153°22'4 8.6
2017-Sep-13 02:01S 27°32' E 153°17'5 6.9
2017-Sep-13 01:18S 27°31' E 153°23'2 5.8
2017-Sep-13 01:00S 27°30' E 153°24'4 7.9
2017-Sep-13 00:30S 27°32' E 153°20'3 5.2
2017-Sep-13 00:00S 27°32' E 153°17'2 4.0
2017-Sep-12 23:30S 27°32' E 153°19'5 9.0
2017-Sep-12 22:59S 27°30' E 153°24'3 5.9
2017-Sep-12 22:30S 27°32' E 153°21'4 7.5
2017-Sep-12 22:01S 27°32' E 153°17'0 0.0
2017-Sep-12 21:30S 27°32' E 153°17'3 4.3
2017-Sep-12 20:56S 27°32' E 153°20'4 9.3
2017-Sep-12 20:30S 27°30' E 153°24'2 4.5
2017-Sep-12 20:00S 27°31' E 153°22'4 6.0
2017-Sep-12 19:16S 27°32' E 153°17'0 0.0
2017-Sep-12 19:00S 27°32' E 153°17'0 0.0
2017-Sep-12 07:56S 27°32' E 153°17'2 4.9
2017-Sep-12 07:30S 27°32' E 153°19'4 8.6
2017-Sep-12 06:59S 27°30' E 153°24'2 4.4
2017-Sep-12 06:30S 27°31' E 153°22'4 7.9
2017-Sep-12 05:57S 27°32' E 153°17'2 4.4
2017-Sep-12 05:30S 27°32' E 153°19'5 9.4
2017-Sep-12 05:00S 27°30' E 153°24'2 4.9
2017-Sep-12 04:31S 27°32' E 153°22'4 8.1
2017-Sep-12 04:00S 27°32' E 153°17'2 4.4
2017-Sep-12 03:30S 27°32' E 153°19'4 8.9
2017-Sep-12 03:00S 27°30' E 153°24'2 3.5
2017-Sep-12 02:30S 27°31' E 153°23'  

Dump ship's entire track history